createdAt,value
2023-02-09T00:01:37.084Z,1.18
2023-02-09T00:04:03.893Z,1.09
2023-02-09T00:06:30.421Z,1.22
2023-02-09T00:08:58.327Z,1.28
2023-02-09T00:11:48.408Z,1.28
2023-02-09T00:14:17.926Z,1.21
2023-02-09T00:16:45.823Z,1.29
2023-02-09T00:19:13.078Z,1.25
2023-02-09T00:21:40.862Z,1.17
2023-02-09T00:24:08.053Z,1.20
2023-02-09T00:26:34.463Z,1.18
2023-02-09T00:29:00.890Z,1.21
2023-02-09T00:31:27.397Z,1.23
2023-02-09T00:33:53.868Z,1.19
2023-02-09T00:36:20.309Z,1.12
2023-02-09T00:38:47.090Z,1.19
2023-02-09T00:41:14.374Z,1.15
2023-02-09T00:43:40.807Z,1.12
2023-02-09T00:46:07.747Z,1.23
2023-02-09T00:48:34.416Z,1.12
2023-02-09T00:51:01.134Z,1.00
2023-02-09T00:53:27.878Z,0.98
2023-02-09T00:55:54.310Z,0.99
2023-02-09T00:58:20.748Z,0.96
2023-02-09T01:00:49.178Z,1.04
2023-02-09T01:03:15.726Z,1.14
2023-02-09T01:05:42.963Z,1.12
2023-02-09T01:08:09.893Z,1.13
2023-02-09T01:10:38.025Z,1.19
2023-02-09T01:13:04.584Z,1.17
2023-02-09T01:15:31.044Z,0.96
2023-02-09T01:17:58.609Z,0.92
2023-02-09T01:20:25.017Z,0.99
2023-02-09T01:22:51.513Z,0.99
2023-02-09T01:25:17.957Z,1.06
2023-02-09T01:27:44.338Z,1.08
2023-02-09T01:30:11.590Z,0.99
2023-02-09T01:32:37.986Z,1.03
2023-02-09T01:35:04.909Z,1.01
2023-02-09T01:37:34.082Z,0.99
2023-02-09T01:40:00.524Z,1.03
2023-02-09T01:42:27.629Z,0.98
2023-02-09T01:45:00.075Z,1.00
2023-02-09T01:47:26.564Z,0.95
2023-02-09T01:49:53.356Z,0.98
2023-02-09T01:52:25.443Z,1.04
2023-02-09T01:54:57.227Z,1.01
2023-02-09T01:57:27.792Z,0.96
2023-02-09T01:59:58.284Z,1.00
2023-02-09T02:02:25.326Z,1.10
2023-02-09T02:04:52.663Z,1.14
2023-02-09T02:07:32.836Z,1.18
2023-02-09T02:10:01.049Z,1.12
2023-02-09T02:12:27.567Z,1.10
2023-02-09T02:14:54.004Z,1.12
2023-02-09T02:17:40.038Z,1.10
2023-02-09T02:20:27.939Z,1.10
2023-02-09T02:23:05.220Z,1.08
2023-02-09T02:25:55.767Z,1.04
2023-02-09T02:28:31.709Z,1.05
2023-02-09T02:31:28.344Z,1.01
2023-02-09T02:34:18.303Z,1.07
2023-02-09T02:37:15.634Z,0.95
2023-02-09T02:39:51.350Z,0.90
2023-02-09T02:42:54.415Z,0.91
2023-02-09T02:45:32.849Z,0.92
2023-02-09T02:48:16.517Z,0.97
2023-02-09T02:51:02.098Z,0.96
2023-02-09T02:53:31.319Z,0.96
2023-02-09T02:56:04.440Z,0.91
2023-02-09T02:58:32.573Z,0.95
2023-02-09T03:01:02.760Z,0.91
2023-02-09T03:03:33.073Z,0.91
2023-02-09T03:06:02.858Z,0.86
2023-02-09T03:08:29.340Z,0.92
2023-02-09T03:10:56.193Z,0.89
2023-02-09T03:13:55.498Z,0.89
2023-02-09T03:16:46.312Z,0.89
2023-02-09T03:19:31.299Z,0.83
2023-02-09T03:22:20.362Z,0.89
2023-02-09T03:25:00.338Z,0.90
2023-02-09T03:27:41.166Z,0.86
2023-02-09T03:30:11.515Z,0.88
2023-02-09T03:32:40.875Z,0.91
2023-02-09T03:35:10.943Z,0.92
2023-02-09T03:37:37.400Z,0.89
2023-02-09T03:40:04.123Z,0.90
2023-02-09T03:42:30.556Z,0.83
2023-02-09T03:44:57.041Z,0.84
2023-02-09T03:47:23.502Z,0.86
2023-02-09T03:49:49.951Z,0.81
2023-02-09T03:52:17.152Z,0.82
2023-02-09T03:54:43.754Z,0.82
2023-02-09T03:57:10.685Z,0.82
2023-02-09T03:59:37.715Z,0.78
2023-02-09T04:02:06.775Z,0.82
2023-02-09T04:04:33.246Z,0.81
2023-02-09T04:06:59.917Z,0.79
2023-02-09T04:09:27.855Z,0.77
2023-02-09T04:11:54.689Z,0.85
2023-02-09T04:14:21.127Z,0.86
2023-02-09T04:16:47.856Z,0.80
2023-02-09T04:19:14.409Z,0.75
2023-02-09T04:21:40.845Z,0.80
2023-02-09T04:24:08.290Z,0.88
2023-02-09T04:26:35.390Z,0.91
2023-02-09T04:29:01.831Z,0.88
2023-02-09T04:31:28.392Z,0.87
2023-02-09T04:33:55.896Z,0.81
2023-02-09T04:36:23.407Z,0.70
2023-02-09T04:38:50.342Z,0.62
2023-02-09T04:41:17.146Z,0.52
2023-02-09T04:43:43.625Z,0.57
2023-02-09T04:46:14.808Z,0.63
2023-02-09T04:48:41.826Z,0.52
2023-02-09T04:51:08.612Z,0.50
2023-02-09T04:53:35.147Z,0.44
2023-02-09T04:56:01.822Z,0.27
2023-02-09T04:58:46.900Z,0.20
2023-02-09T05:01:18.737Z,0.12
2023-02-09T05:03:45.258Z,0.09
2023-02-09T05:06:11.836Z,0.31
2023-02-09T05:08:38.246Z,0.42
2023-02-09T05:11:04.783Z,0.25
2023-02-09T05:13:31.234Z,0.17
2023-02-09T05:15:57.786Z,0.27
2023-02-09T05:18:26.060Z,0.27
2023-02-09T05:20:52.627Z,0.28
2023-02-09T05:23:19.223Z,0.28
2023-02-09T05:25:46.140Z,0.16
2023-02-09T05:28:12.758Z,0.10
2023-02-09T05:30:39.319Z,0.00
2023-02-09T05:33:05.832Z,0.09
2023-02-09T05:35:32.264Z,0.16
2023-02-09T05:37:58.676Z,0.10
2023-02-09T05:40:25.268Z,0.09
2023-02-09T05:42:51.749Z,0.00
2023-02-09T05:45:18.308Z,0.02
2023-02-09T05:47:45.513Z,0.05
2023-02-09T05:50:11.918Z,0.04
2023-02-09T05:52:38.331Z,-0.01
2023-02-09T05:55:04.988Z,0.01
2023-02-09T05:57:31.405Z,-0.08
2023-02-09T05:59:57.778Z,-0.22
2023-02-09T06:02:24.251Z,-0.46
2023-02-09T06:04:50.680Z,-0.61
2023-02-09T06:10:13.423Z,-0.67
2023-02-09T06:12:41.336Z,-0.48
2023-02-09T06:15:09.791Z,-0.55
2023-02-09T06:17:36.709Z,-0.76
2023-02-09T06:20:03.834Z,-0.80
2023-02-09T06:22:33.456Z,-0.85
2023-02-09T06:25:00.726Z,-0.75
2023-02-09T06:27:30.868Z,-0.81
2023-02-09T06:29:57.322Z,-0.98
2023-02-09T06:32:24.032Z,-1.10
2023-02-09T06:34:57.919Z,-1.10
2023-02-09T06:37:27.048Z,-0.95
2023-02-09T06:40:01.528Z,-0.84
2023-02-09T06:42:43.757Z,-0.82
2023-02-09T06:45:18.148Z,-0.86
2023-02-09T06:47:46.023Z,-0.76
2023-02-09T06:50:16.917Z,-0.75
2023-02-09T06:52:43.779Z,-0.81
2023-02-09T06:55:10.810Z,-0.79
2023-02-09T06:57:50.156Z,-0.74
2023-02-09T07:00:17.504Z,-0.83
2023-02-09T07:02:49.715Z,-0.88
2023-02-09T07:05:18.100Z,-1.06
2023-02-09T07:07:45.972Z,-0.96
2023-02-09T07:10:15.394Z,-0.68
2023-02-09T07:12:49.363Z,-0.70
2023-02-09T07:15:16.693Z,-0.77
2023-02-09T07:17:43.444Z,-0.71
2023-02-09T07:20:10.636Z,-0.69
2023-02-09T07:22:37.117Z,-0.70
2023-02-09T07:25:03.834Z,-0.70
2023-02-09T07:27:32.711Z,-0.68
2023-02-09T07:30:00.899Z,-0.57
2023-02-09T07:32:27.826Z,-0.46
2023-02-09T07:34:55.848Z,-0.46
2023-02-09T07:37:25.801Z,-0.38
2023-02-09T07:39:54.024Z,-0.18
2023-02-09T07:42:23.077Z,-0.20
2023-02-09T07:44:55.377Z,-0.12
2023-02-09T07:47:21.978Z,0.05
2023-02-09T07:49:51.783Z,0.19
2023-02-09T07:52:18.720Z,0.32
2023-02-09T07:54:45.960Z,0.50
2023-02-09T07:57:19.069Z,0.63
2023-02-09T08:00:02.028Z,0.91
2023-02-09T08:02:36.904Z,1.09
2023-02-09T08:05:07.980Z,1.21
2023-02-09T08:07:34.485Z,1.26
2023-02-09T08:10:00.934Z,1.25
2023-02-09T08:12:50.499Z,1.37
2023-02-09T08:15:24.401Z,1.45
2023-02-09T08:17:56.726Z,1.48
2023-02-09T08:20:30.277Z,1.54
2023-02-09T08:23:07.723Z,1.62
2023-02-09T08:25:35.811Z,1.59
2023-02-09T08:28:12.505Z,1.70
2023-02-09T08:30:39.127Z,1.78
2023-02-09T08:33:05.552Z,1.81
2023-02-09T08:35:31.991Z,1.80
2023-02-09T08:38:02.857Z,1.83
2023-02-09T08:40:30.825Z,1.75
2023-02-09T08:42:57.796Z,1.79
2023-02-09T08:45:28.462Z,1.86
2023-02-09T08:48:02.220Z,1.85
2023-02-09T08:50:28.686Z,1.81
2023-02-09T08:52:57.835Z,1.76
2023-02-09T08:55:24.490Z,1.87
2023-02-09T08:57:51.621Z,1.91
2023-02-09T09:00:18.788Z,1.92
2023-02-09T09:02:52.707Z,1.92
2023-02-09T09:05:19.184Z,2.03
2023-02-09T09:07:45.731Z,2.09
2023-02-09T09:10:22.244Z,2.03
2023-02-09T09:12:49.212Z,1.99
2023-02-09T09:15:15.608Z,2.03
2023-02-09T09:17:42.043Z,2.01
2023-02-09T09:20:08.980Z,1.89
2023-02-09T09:22:35.799Z,1.88
2023-02-09T09:25:02.730Z,1.85
2023-02-09T09:27:29.440Z,1.83
2023-02-09T09:29:58.946Z,1.87
2023-02-09T09:32:25.787Z,2.01
2023-02-09T09:35:07.806Z,2.14
2023-02-09T09:37:34.260Z,2.11
2023-02-09T09:40:00.725Z,2.08
2023-02-09T09:42:49.049Z,2.11
2023-02-09T09:45:24.960Z,2.13
2023-02-09T09:47:52.606Z,2.26
2023-02-09T09:50:26.327Z,2.24
2023-02-09T09:53:12.147Z,2.39
2023-02-09T09:55:39.334Z,2.46
2023-02-09T09:58:21.134Z,2.61
2023-02-09T10:00:49.164Z,2.71
2023-02-09T10:03:22.113Z,2.72
2023-02-09T10:06:03.170Z,2.92
2023-02-09T10:08:36.571Z,3.09
2023-02-09T10:11:11.836Z,3.22
2023-02-09T10:13:56.274Z,3.05
2023-02-09T10:16:34.521Z,3.02
2023-02-09T10:19:03.797Z,3.07
2023-02-09T10:21:34.822Z,3.10
2023-02-09T10:24:01.260Z,3.05
2023-02-09T10:26:33.253Z,3.29
2023-02-09T10:29:20.895Z,3.37
2023-02-09T10:31:54.844Z,3.31
2023-02-09T10:34:33.235Z,3.40
2023-02-09T10:37:48.203Z,3.64
2023-02-09T10:40:19.066Z,3.67
2023-02-09T10:43:07.153Z,3.67
2023-02-09T10:45:51.415Z,3.73
2023-02-09T10:48:20.621Z,3.68
2023-02-09T10:51:19.461Z,3.44
2023-02-09T10:54:07.257Z,3.25
2023-02-09T10:56:49.550Z,3.45
2023-02-09T10:59:19.032Z,3.88
2023-02-09T11:01:54.433Z,3.90
2023-02-09T11:04:23.799Z,3.59
2023-02-09T11:06:58.015Z,3.48
2023-02-09T11:09:28.825Z,3.76
2023-02-09T11:11:55.885Z,3.79
2023-02-09T11:14:22.966Z,3.65
2023-02-09T11:16:58.122Z,3.71
2023-02-09T11:20:05.193Z,4.35
2023-02-09T11:22:53.142Z,4.50
2023-02-09T11:25:41.044Z,4.38
2023-02-09T11:28:26.505Z,4.53
2023-02-09T11:31:17.737Z,4.45
2023-02-09T11:34:05.997Z,4.30
2023-02-09T11:37:02.323Z,4.51
2023-02-09T11:39:44.374Z,4.47
2023-02-09T11:42:34.440Z,4.39
2023-02-09T11:45:12.561Z,4.40
2023-02-09T11:47:57.970Z,4.05
2023-02-09T11:50:34.019Z,4.07
2023-02-09T11:53:21.334Z,4.25
2023-02-09T11:55:52.167Z,4.04
2023-02-09T11:58:33.771Z,4.09
2023-02-09T12:01:15.995Z,4.36
2023-02-09T12:03:55.036Z,4.43
2023-02-09T12:06:24.028Z,4.63
2023-02-09T12:08:59.423Z,4.66
2023-02-09T12:12:08.000Z,4.70
2023-02-09T12:14:41.505Z,4.44
2023-02-09T12:17:51.366Z,4.35
2023-02-09T12:20:29.230Z,4.65
2023-02-09T12:23:01.035Z,4.51
2023-02-09T12:25:51.496Z,4.18
2023-02-09T12:28:42.687Z,4.20
2023-02-09T12:31:20.535Z,4.01
2023-02-09T12:33:47.184Z,3.88
2023-02-09T12:36:13.600Z,3.95
2023-02-09T12:38:56.358Z,3.98
2023-02-09T12:41:23.356Z,4.08
2023-02-09T12:43:50.769Z,4.27
2023-02-09T12:46:17.293Z,4.36
2023-02-09T12:48:50.993Z,4.23
2023-02-09T12:51:39.326Z,4.40
2023-02-09T12:54:43.142Z,4.45
2023-02-09T12:57:15.829Z,4.55
2023-02-09T13:00:00.636Z,4.24
2023-02-09T13:02:36.080Z,4.21
2023-02-09T13:05:17.265Z,4.00
2023-02-09T13:08:11.336Z,4.03
2023-02-09T13:10:41.104Z,4.43
2023-02-09T13:13:18.672Z,4.56
2023-02-09T13:15:52.040Z,4.57
2023-02-09T13:18:38.549Z,4.67
2023-02-09T13:21:39.604Z,4.26
2023-02-09T13:24:19.036Z,4.05
2023-02-09T13:27:19.229Z,4.06
2023-02-09T13:29:53.589Z,4.14
2023-02-09T13:32:38.596Z,4.35
2023-02-09T13:35:18.442Z,4.53
2023-02-09T13:37:52.441Z,4.54
2023-02-09T13:40:23.528Z,4.60
2023-02-09T13:42:56.412Z,4.64
2023-02-09T13:45:26.664Z,4.58
2023-02-09T13:47:54.734Z,4.51
2023-02-09T13:50:23.922Z,4.49
2023-02-09T13:52:51.287Z,4.60
2023-02-09T13:55:26.217Z,4.65
2023-02-09T13:58:07.220Z,4.54
2023-02-09T14:00:39.431Z,4.44
2023-02-09T14:03:12.418Z,4.52
2023-02-09T14:05:48.882Z,4.63
2023-02-09T14:08:18.205Z,4.69
2023-02-09T14:10:54.045Z,4.67
2023-02-09T14:13:39.239Z,4.56
2023-02-09T14:16:07.262Z,4.46
2023-02-09T14:18:57.940Z,4.57
2023-02-09T14:21:44.797Z,4.73
2023-02-09T14:24:22.621Z,4.71
2023-02-09T14:26:59.387Z,4.68
2023-02-09T14:29:31.333Z,4.68
2023-02-09T14:32:36.555Z,4.66
2023-02-09T14:35:22.172Z,4.68
2023-02-09T14:37:50.096Z,4.63
2023-02-09T14:40:26.834Z,4.62
2023-02-09T14:43:11.674Z,4.68
2023-02-09T14:45:40.355Z,4.61
2023-02-09T14:48:16.744Z,4.54
2023-02-09T14:50:43.911Z,4.60
2023-02-09T14:53:13.687Z,4.61
2023-02-09T14:55:40.815Z,4.59
2023-02-09T14:58:21.508Z,4.55
2023-02-09T15:00:48.693Z,4.50
2023-02-09T15:03:15.692Z,4.43
2023-02-09T15:05:42.869Z,4.43
2023-02-09T15:08:15.943Z,4.40
2023-02-09T15:10:48.743Z,4.48
2023-02-09T15:13:16.190Z,4.52
2023-02-09T15:15:43.587Z,4.54
2023-02-09T15:18:19.051Z,4.47
2023-02-09T15:20:45.945Z,4.46
2023-02-09T15:23:12.896Z,4.51
2023-02-09T15:25:40.753Z,4.54
2023-02-09T15:28:14.418Z,4.47
2023-02-09T15:30:40.991Z,4.38
2023-02-09T15:33:12.594Z,4.38
2023-02-09T15:35:39.422Z,4.24
2023-02-09T15:38:06.117Z,4.23
2023-02-09T15:41:01.689Z,4.24
2023-02-09T15:43:48.000Z,4.29
2023-02-09T15:46:34.072Z,4.26
2023-02-09T15:49:01.577Z,4.22
2023-02-09T15:51:34.257Z,4.17
2023-02-09T15:54:05.398Z,4.16
2023-02-09T15:56:31.833Z,4.14
2023-02-09T15:59:03.520Z,4.11
2023-02-09T16:01:34.145Z,4.15
2023-02-09T16:04:14.469Z,4.15
2023-02-09T16:06:48.742Z,4.07
2023-02-09T16:09:19.966Z,4.04
2023-02-09T16:11:48.517Z,4.00
2023-02-09T16:14:17.123Z,3.98
2023-02-09T16:16:45.720Z,3.92
2023-02-09T16:19:13.480Z,3.88
2023-02-09T16:21:43.412Z,3.84
2023-02-09T16:24:21.334Z,3.76
2023-02-09T16:26:48.095Z,3.74
2023-02-09T16:29:15.358Z,3.72
2023-02-09T16:31:42.004Z,3.65
2023-02-09T16:34:09.395Z,3.50
2023-02-09T16:36:35.913Z,3.35
2023-02-09T16:39:03.492Z,3.27
2023-02-09T16:41:49.660Z,3.19
2023-02-09T16:44:24.633Z,3.10
2023-02-09T16:46:53.558Z,3.04
2023-02-09T16:49:34.754Z,3.05
2023-02-09T16:52:06.073Z,2.96
2023-02-09T16:54:40.641Z,2.90
2023-02-09T16:57:09.441Z,2.87
2023-02-09T16:59:35.905Z,2.80
2023-02-09T17:02:03.687Z,2.76
2023-02-09T17:04:30.217Z,2.73
2023-02-09T17:06:56.717Z,2.67
2023-02-09T17:09:23.102Z,2.64
2023-02-09T17:11:49.567Z,2.60
2023-02-09T17:14:15.962Z,2.54
2023-02-09T17:16:45.055Z,2.54
2023-02-09T17:19:15.314Z,2.51
2023-02-09T17:21:42.288Z,2.47
2023-02-09T17:24:15.297Z,2.49
2023-02-09T17:26:42.058Z,2.48
2023-02-09T17:29:09.026Z,2.45
2023-02-09T17:31:51.956Z,2.37
2023-02-09T17:34:20.538Z,2.34
2023-02-09T17:36:47.084Z,2.35
2023-02-09T17:39:13.947Z,2.39
2023-02-09T17:41:45.207Z,2.35
2023-02-09T17:44:22.250Z,2.30
2023-02-09T17:46:55.702Z,2.42
2023-02-09T17:49:22.199Z,2.27
2023-02-09T17:51:49.275Z,2.21
2023-02-09T17:54:18.758Z,2.15
2023-02-09T17:56:45.666Z,2.14
2023-02-09T17:59:13.376Z,2.09
2023-02-09T18:01:42.517Z,2.06
2023-02-09T18:04:16.462Z,2.05
2023-02-09T18:06:42.905Z,2.00
2023-02-09T18:09:12.429Z,2.00
2023-02-09T18:12:02.049Z,2.03
2023-02-09T18:14:31.107Z,1.95
2023-02-09T18:16:57.600Z,1.96
2023-02-09T18:19:24.681Z,1.91
2023-02-09T18:21:53.668Z,1.91
2023-02-09T18:24:22.294Z,1.84
2023-02-09T18:26:50.983Z,1.81
2023-02-09T18:29:18.420Z,1.79
2023-02-09T18:31:46.583Z,1.76
2023-02-09T18:34:13.880Z,1.72
2023-02-09T18:36:40.287Z,1.66
2023-02-09T18:39:06.775Z,1.61
2023-02-09T18:41:33.366Z,1.58
2023-02-09T18:43:59.754Z,1.62
2023-02-09T18:46:27.022Z,1.62
2023-02-09T18:48:54.676Z,1.56
2023-02-09T18:51:21.811Z,1.53
2023-02-09T18:53:50.141Z,1.53
2023-02-09T18:56:19.217Z,1.48
2023-02-09T18:58:46.191Z,1.49
2023-02-09T19:01:13.607Z,1.51
2023-02-09T19:03:40.159Z,1.48
2023-02-09T19:06:10.814Z,1.53
2023-02-09T19:08:38.568Z,1.48
2023-02-09T19:11:06.151Z,1.40
2023-02-09T19:13:34.028Z,1.40
2023-02-09T19:16:01.128Z,1.45
2023-02-09T19:18:28.194Z,1.45
2023-02-09T19:20:57.251Z,1.45
2023-02-09T19:23:24.718Z,1.30
2023-02-09T19:26:01.668Z,1.18
2023-02-09T19:28:28.186Z,1.17
2023-02-09T19:30:54.724Z,1.28
2023-02-09T19:33:23.321Z,1.26
2023-02-09T19:35:57.757Z,1.14
2023-02-09T19:38:25.629Z,1.03
2023-02-09T19:41:05.116Z,1.08
2023-02-09T19:43:36.051Z,1.04
2023-02-09T19:46:02.549Z,0.99
2023-02-09T19:48:28.961Z,0.98
2023-02-09T19:50:56.970Z,1.08
2023-02-09T19:53:24.020Z,1.12
2023-02-09T19:55:52.102Z,1.03
2023-02-09T19:58:22.296Z,0.93
2023-02-09T20:00:50.265Z,0.88
2023-02-09T20:03:17.451Z,0.79
2023-02-09T20:05:44.803Z,0.85
2023-02-09T20:08:15.765Z,0.86
2023-02-09T20:10:43.920Z,0.80
2023-02-09T20:13:14.122Z,0.75
2023-02-09T20:15:42.262Z,0.73
2023-02-09T20:18:09.299Z,0.67
2023-02-09T20:20:35.785Z,0.60
2023-02-09T20:23:02.183Z,0.67
2023-02-09T20:25:28.632Z,0.68
2023-02-09T20:27:55.697Z,0.58
2023-02-09T20:30:22.157Z,0.60
2023-02-09T20:32:48.641Z,0.55
2023-02-09T20:35:15.193Z,0.61
2023-02-09T20:37:41.650Z,0.52
2023-02-09T20:40:11.302Z,0.48
2023-02-09T20:42:57.127Z,0.34
2023-02-09T20:45:42.522Z,0.32
2023-02-09T20:48:08.947Z,0.10
2023-02-09T20:50:35.438Z,0.14
2023-02-09T20:53:03.277Z,0.19
2023-02-09T20:55:30.409Z,0.32
2023-02-09T20:57:56.874Z,0.35
2023-02-09T21:00:23.411Z,0.28
2023-02-09T21:02:49.905Z,0.25
2023-02-09T21:05:16.679Z,0.19
2023-02-09T21:07:43.266Z,0.18
2023-02-09T21:10:12.763Z,0.13
2023-02-09T21:12:39.294Z,0.05
2023-02-09T21:15:06.050Z,-0.02
2023-02-09T21:17:32.565Z,-0.05
2023-02-09T21:19:58.986Z,-0.17
2023-02-09T21:22:25.407Z,-0.25
2023-02-09T21:24:51.860Z,-0.34
2023-02-09T21:27:18.377Z,-0.38
2023-02-09T21:29:44.865Z,-0.46
2023-02-09T21:32:11.301Z,-0.52
2023-02-09T21:34:37.744Z,-0.57
2023-02-09T21:37:07.724Z,-0.58
2023-02-09T21:39:34.196Z,-0.63
2023-02-09T21:42:18.984Z,-0.64
2023-02-09T21:44:45.386Z,-0.65
2023-02-09T21:47:12.084Z,-0.66
2023-02-09T21:49:38.584Z,-0.56
2023-02-09T21:52:05.523Z,-0.43
2023-02-09T21:54:33.926Z,-0.40
2023-02-09T21:57:01.403Z,-0.47
2023-02-09T21:59:28.621Z,-0.54
2023-02-09T22:01:55.265Z,-0.54
2023-02-09T22:04:21.801Z,-0.51
2023-02-09T22:06:48.481Z,-0.41
2023-02-09T22:09:14.977Z,-0.40
2023-02-09T22:11:41.608Z,-0.48
2023-02-09T22:14:08.031Z,-0.54
2023-02-09T22:16:34.468Z,-0.59
2023-02-09T22:19:00.917Z,-0.59
2023-02-09T22:21:27.478Z,-0.59
2023-02-09T22:23:54.377Z,-0.51
2023-02-09T22:26:21.214Z,-0.66
2023-02-09T22:28:47.795Z,-0.68
2023-02-09T22:31:19.117Z,-0.62
2023-02-09T22:33:45.779Z,-0.63
2023-02-09T22:36:14.991Z,-0.71
2023-02-09T22:38:42.140Z,-0.72
2023-02-09T22:41:21.271Z,-0.69
2023-02-09T22:43:50.674Z,-0.65
2023-02-09T22:46:17.419Z,-0.70
2023-02-09T22:48:44.377Z,-0.76
2023-02-09T22:51:17.129Z,-0.79
2023-02-09T22:53:44.798Z,-0.74
2023-02-09T22:56:12.380Z,-0.71
2023-02-09T22:58:38.899Z,-0.73
2023-02-09T23:01:06.045Z,-0.69
2023-02-09T23:03:33.814Z,-0.61
2023-02-09T23:06:01.799Z,-0.57
2023-02-09T23:08:28.758Z,-0.64
2023-02-09T23:11:01.427Z,-0.74
2023-02-09T23:13:27.916Z,-0.80
2023-02-09T23:15:54.394Z,-0.78
2023-02-09T23:18:20.891Z,-0.76
2023-02-09T23:20:48.954Z,-0.79
2023-02-09T23:23:16.275Z,-0.91
2023-02-09T23:25:42.782Z,-0.99
2023-02-09T23:28:09.250Z,-0.97
2023-02-09T23:30:35.718Z,-0.99
2023-02-09T23:33:02.282Z,-1.02
2023-02-09T23:35:28.717Z,-1.08
2023-02-09T23:37:55.149Z,-1.01
2023-02-09T23:40:21.569Z,-1.04
2023-02-09T23:42:47.982Z,-1.09
2023-02-09T23:45:14.605Z,-1.05
2023-02-09T23:47:41.019Z,-1.03
2023-02-09T23:50:07.516Z,-1.10
2023-02-09T23:52:33.967Z,-1.12
2023-02-09T23:55:00.485Z,-0.94
2023-02-09T23:57:26.926Z,-0.93
2023-02-09T23:59:53.352Z,-1.02
